Aviation Digital Data Service (ADDS)

Output produced by METARs form (2155 UTC 25 November 2014)
found at http://aviationweather.gov/adds/metars/
 
KBDL 252130Z 2522/2624 24009KT P6SM BKN060 
     FM260500 29004KT P6SM BKN050 
     FM261100 35004KT 4SM -RASN OVC060 
     FM261300 35004KT 2SM -SNRA OVC040 
     FM261400 36005KT 2SM -SN OVC035 
     FM261800 01008KT 1SM -SN OVC008 
     FM262200 01012G26KT 2SM -SN OVC008